createdAt,value
2023-07-09T08:54:00.685Z,98531.84
2023-07-09T08:56:32.903Z,98538.56
2023-07-09T08:59:03.006Z,98533.53
2023-07-09T09:01:38.524Z,98538.66
2023-07-09T09:04:11.923Z,98538.28
2023-07-09T09:06:42.355Z,98533.28
2023-07-09T09:09:12.353Z,98522.44
2023-07-09T09:12:10.238Z,98532.84
2023-07-09T09:14:41.834Z,98519.50
2023-07-09T09:17:17.779Z,98512.38
2023-07-09T09:19:49.477Z,98537.47
2023-07-09T09:22:22.187Z,98514.53
2023-07-09T09:24:56.193Z,98515.31
2023-07-09T09:27:22.631Z,98516.19
2023-07-09T09:29:49.066Z,98520.53
2023-07-09T09:32:30.691Z,98519.31
2023-07-09T09:34:57.891Z,98520.25
2023-07-09T09:37:28.145Z,98520.63
2023-07-09T09:40:11.338Z,98523.31
2023-07-09T09:42:39.989Z,98524.84
2023-07-09T09:45:14.639Z,98531.22
2023-07-09T09:47:41.616Z,98529.16
2023-07-09T09:50:14.321Z,98528.50
2023-07-09T09:52:40.902Z,98527.50
2023-07-09T09:55:17.018Z,98523.56
2023-07-09T09:57:49.977Z,98525.66
2023-07-09T10:00:18.756Z,98520.66
2023-07-09T10:02:46.903Z,98521.72
2023-07-09T10:05:18.509Z,98514.53
2023-07-09T10:08:09.101Z,98515.59
2023-07-09T10:10:36.001Z,98503.09
2023-07-09T10:13:29.385Z,98488.13
2023-07-09T10:16:11.255Z,98513.72
2023-07-09T10:18:54.374Z,98497.69
2023-07-09T10:21:27.381Z,98484.69
2023-07-09T10:24:25.059Z,98491.28
2023-07-09T10:27:15.321Z,98481.66
2023-07-09T10:30:16.046Z,98494.47
2023-07-09T10:33:09.504Z,98493.31
2023-07-09T10:35:53.932Z,98499.69
2023-07-09T10:38:35.738Z,98492.47
2023-07-09T10:41:16.641Z,98494.50
2023-07-09T10:43:57.582Z,98499.31
2023-07-09T10:46:27.901Z,98496.41
2023-07-09T10:48:57.562Z,98495.03
2023-07-09T10:51:29.519Z,98482.53
2023-07-09T10:54:05.370Z,98492.25
2023-07-09T10:56:36.171Z,98476.06
2023-07-09T10:59:18.802Z,98464.47
2023-07-09T11:01:50.408Z,98476.31
2023-07-09T11:04:22.872Z,98490.13
2023-07-09T11:06:53.362Z,98483.34
2023-07-09T11:09:32.544Z,98476.91
2023-07-09T11:12:05.882Z,98479.00
2023-07-09T11:14:42.365Z,98478.22
2023-07-09T11:17:15.431Z,98464.63
2023-07-09T11:19:46.612Z,98462.59
2023-07-09T11:22:16.265Z,98461.41
2023-07-09T11:24:54.273Z,98458.19
2023-07-09T11:27:27.542Z,98469.13
2023-07-09T11:30:22.511Z,98454.91
2023-07-09T11:32:54.697Z,98454.81
2023-07-09T11:35:26.720Z,98439.66
2023-07-09T11:37:54.511Z,98435.94
2023-07-09T11:40:22.324Z,98459.69
2023-07-09T11:43:00.130Z,98449.31
2023-07-09T11:45:32.979Z,98444.31
2023-07-09T11:48:18.802Z,98449.75
2023-07-09T11:50:49.135Z,98448.34
2023-07-09T11:53:24.827Z,98447.22
2023-07-09T11:55:51.338Z,98432.19
2023-07-09T11:58:19.792Z,98439.44
2023-07-09T12:00:56.333Z,98436.78
2023-07-09T12:03:35.525Z,98437.91
2023-07-09T12:06:05.708Z,98423.88
2023-07-09T12:08:39.677Z,98432.16
2023-07-09T12:11:06.800Z,98430.19
2023-07-09T12:13:40.666Z,98422.06
2023-07-09T12:16:28.261Z,98421.81
2023-07-09T12:18:55.127Z,98429.31
2023-07-09T12:21:23.727Z,98428.47
2023-07-09T12:23:50.499Z,98410.56
2023-07-09T12:26:18.996Z,98425.22
2023-07-09T12:28:58.152Z,98424.22
2023-07-09T12:31:31.451Z,98412.47
2023-07-09T12:34:00.076Z,98410.59
2023-07-09T12:36:28.340Z,98414.69
2023-07-09T12:39:00.704Z,98399.38
2023-07-09T12:41:33.725Z,98412.75
2023-07-09T12:44:01.033Z,98402.50
2023-07-09T12:46:28.651Z,98391.97
2023-07-09T12:48:55.998Z,98378.63
2023-07-09T12:51:25.195Z,98390.63
2023-07-09T12:54:24.849Z,98385.66
2023-07-09T12:56:55.918Z,98385.06
2023-07-09T12:59:28.781Z,98379.31
2023-07-09T13:02:08.661Z,98364.84
2023-07-09T13:04:39.116Z,98377.84
2023-07-09T13:07:24.305Z,98359.41
2023-07-09T13:09:55.611Z,98369.91
2023-07-09T13:12:30.239Z,98362.47
2023-07-09T13:14:59.425Z,98371.31
2023-07-09T13:17:33.898Z,98375.53
2023-07-09T13:20:00.723Z,98375.88
2023-07-09T13:22:29.410Z,98360.50
2023-07-09T13:24:55.920Z,98360.56
2023-07-09T13:27:22.545Z,98358.66
2023-07-09T13:29:49.124Z,98358.38
2023-07-09T13:32:17.261Z,98358.53
2023-07-09T13:34:45.663Z,98356.16
2023-07-09T13:37:16.211Z,98345.91
2023-07-09T13:39:46.392Z,98354.78
2023-07-09T13:42:15.542Z,98356.97
2023-07-09T13:44:44.003Z,98343.78
2023-07-09T13:47:16.353Z,98336.66
2023-07-09T13:49:43.981Z,98330.84
2023-07-09T13:52:25.462Z,98340.56
2023-07-09T13:54:52.122Z,98358.28
2023-07-09T13:57:21.653Z,98355.13
2023-07-09T13:59:48.573Z,98356.78
2023-07-09T14:02:23.393Z,98346.66
2023-07-09T14:04:53.457Z,98341.88
2023-07-09T14:07:29.914Z,98349.06
2023-07-09T14:09:57.141Z,98358.84
2023-07-09T14:12:23.998Z,98360.44
2023-07-09T14:14:53.374Z,98353.47
2023-07-09T14:17:20.225Z,98344.88
2023-07-09T14:19:46.944Z,98346.56
2023-07-09T14:22:24.370Z,98340.63
2023-07-09T14:24:51.093Z,98348.88
2023-07-09T14:27:18.746Z,98348.56
2023-07-09T14:29:45.272Z,98348.00
2023-07-09T14:32:35.075Z,98354.97
2023-07-09T14:35:04.698Z,98350.06
2023-07-09T14:37:31.187Z,98346.81
2023-07-09T14:39:58.827Z,98348.38
2023-07-09T14:42:25.905Z,98343.00
2023-07-09T14:44:52.607Z,98348.94
2023-07-09T14:47:22.162Z,98332.19
2023-07-09T14:49:49.196Z,98352.28
2023-07-09T14:52:18.893Z,98351.31
2023-07-09T14:54:46.425Z,98370.91
2023-07-09T14:57:20.755Z,98380.00
2023-07-09T14:59:48.684Z,98475.97
2023-07-09T15:02:23.643Z,98498.88
2023-07-09T15:04:50.720Z,98527.66
2023-07-09T15:07:18.048Z,98485.84
2023-07-09T15:09:46.414Z,98517.69
2023-07-09T15:12:19.661Z,98537.16
2023-07-09T15:14:46.469Z,98537.09
2023-07-09T15:17:13.380Z,98539.41
2023-07-09T15:19:40.343Z,98553.53
2023-07-09T15:22:19.185Z,98550.41
2023-07-09T15:24:45.985Z,98592.78
2023-07-09T15:27:12.978Z,98607.97
2023-07-09T15:29:39.418Z,98605.88
2023-07-09T15:32:06.621Z,98612.75
2023-07-09T15:34:33.156Z,98652.66
2023-07-09T15:36:59.673Z,98688.28
2023-07-09T15:39:27.422Z,98687.75
2023-07-09T15:41:54.440Z,98690.19
2023-07-09T15:44:24.570Z,98676.69
2023-07-09T15:46:57.059Z,98679.81
2023-07-09T15:49:24.689Z,98691.69
2023-07-09T15:51:51.226Z,98711.66
2023-07-09T15:54:22.689Z,98722.91
2023-07-09T15:56:50.995Z,98696.66
2023-07-09T15:59:37.712Z,98662.06
2023-07-09T16:02:12.316Z,98644.09
2023-07-09T16:04:39.586Z,98636.13
2023-07-09T16:07:06.649Z,98617.25
2023-07-09T16:09:33.160Z,98625.81
2023-07-09T16:11:59.623Z,98597.47
2023-07-09T16:14:31.567Z,98565.84
2023-07-09T16:17:00.866Z,98543.09
2023-07-09T16:19:29.755Z,98529.06
2023-07-09T16:22:02.920Z,98514.56
2023-07-09T16:24:32.066Z,98510.50
2023-07-09T16:27:03.333Z,98495.41
2023-07-09T16:29:33.040Z,98465.97
2023-07-09T16:32:00.861Z,98460.94
2023-07-09T16:34:29.976Z,98457.00
2023-07-09T16:36:57.546Z,98468.59
2023-07-09T16:39:28.762Z,98457.91
2023-07-09T16:41:56.579Z,98453.47
2023-07-09T16:44:23.805Z,98450.34
2023-07-09T16:46:51.546Z,98458.09
2023-07-09T16:49:29.503Z,98429.38
2023-07-09T16:51:59.808Z,98425.16
2023-07-09T16:54:26.558Z,98423.72
2023-07-09T16:56:54.516Z,98423.69
2023-07-09T16:59:21.058Z,98410.88
2023-07-09T17:01:47.875Z,98406.16
2023-07-09T17:04:27.601Z,98402.63
2023-07-09T17:06:54.270Z,98408.53
2023-07-09T17:09:21.701Z,98412.81
2023-07-09T17:11:59.920Z,98421.88
2023-07-09T17:14:27.093Z,98431.38
2023-07-09T17:16:53.906Z,98431.44
2023-07-09T17:19:20.390Z,98423.75
2023-07-09T17:21:48.852Z,98431.97
2023-07-09T17:24:22.340Z,98428.31
2023-07-09T17:26:50.158Z,98418.31
2023-07-09T17:29:17.225Z,98433.75
2023-07-09T17:31:45.585Z,98441.31
2023-07-09T17:34:12.837Z,98439.28
2023-07-09T17:36:39.513Z,98432.19
2023-07-09T17:39:23.245Z,98424.06
2023-07-09T17:41:51.154Z,98418.44
2023-07-09T17:44:23.629Z,98423.56
2023-07-09T17:46:52.654Z,98413.47
2023-07-09T17:49:28.592Z,98415.22
2023-07-09T17:51:55.360Z,98402.31
2023-07-09T17:54:24.637Z,98409.25
2023-07-09T17:56:53.614Z,98405.91
2023-07-09T17:59:25.988Z,98392.78
2023-07-09T18:02:00.615Z,98387.53
2023-07-09T18:04:31.072Z,98396.75
2023-07-09T18:07:00.004Z,98392.19
2023-07-09T18:09:26.484Z,98399.94
2023-07-09T18:11:54.764Z,98409.22
2023-07-09T18:14:27.891Z,98404.03
2023-07-09T18:16:54.902Z,98404.94
2023-07-09T18:19:27.369Z,98406.19
2023-07-09T18:22:02.599Z,98407.91
2023-07-09T18:24:29.087Z,98404.94
2023-07-09T18:26:56.487Z,98398.84
2023-07-09T18:29:33.443Z,98402.81
2023-07-09T18:32:01.297Z,98407.97
2023-07-09T18:34:27.758Z,98407.25
2023-07-09T18:36:54.491Z,98399.53
2023-07-09T18:39:21.074Z,98409.31
2023-07-09T18:41:47.547Z,98412.91
2023-07-09T18:44:19.678Z,98414.91
2023-07-09T18:46:47.872Z,98417.06
2023-07-09T18:49:14.894Z,98423.06
2023-07-09T18:51:43.445Z,98416.84
2023-07-09T18:54:18.027Z,98417.63
2023-07-09T18:56:48.953Z,98415.03
2023-07-09T18:59:21.808Z,98408.44
2023-07-09T19:01:49.864Z,98407.56
2023-07-09T19:04:24.670Z,98412.91
2023-07-09T19:06:51.178Z,98406.81
2023-07-09T19:09:20.650Z,98407.31
2023-07-09T19:11:48.783Z,98411.91
2023-07-09T19:14:16.746Z,98415.28
2023-07-09T19:17:05.751Z,98412.75
2023-07-09T19:19:32.225Z,98419.94
2023-07-09T19:21:58.774Z,98415.06
2023-07-09T19:24:31.377Z,98406.31
2023-07-09T19:26:58.396Z,98403.81
2023-07-09T19:29:26.661Z,98407.13
2023-07-09T19:31:57.459Z,98413.63
2023-07-09T19:34:28.390Z,98412.41
2023-07-09T19:37:00.497Z,98408.88
2023-07-09T19:39:35.513Z,98409.03
2023-07-09T19:42:23.896Z,98429.69
2023-07-09T19:44:51.035Z,98424.75
2023-07-09T19:47:23.815Z,98417.91
2023-07-09T19:49:53.267Z,98432.91
2023-07-09T19:52:19.888Z,98425.72
2023-07-09T19:54:46.353Z,98434.16
2023-07-09T19:57:14.200Z,98446.16
2023-07-09T19:59:41.111Z,98447.56
2023-07-09T20:02:19.897Z,98447.88
2023-07-09T20:04:46.817Z,98453.97
2023-07-09T20:07:14.235Z,98459.25
2023-07-09T20:09:43.008Z,98448.16
2023-07-09T20:12:20.333Z,98454.06
2023-07-09T20:14:48.176Z,98450.34
2023-07-09T20:17:16.248Z,98440.72
2023-07-09T20:19:43.654Z,98454.09
2023-07-09T20:22:15.547Z,98448.03
2023-07-09T20:24:42.545Z,98455.69
2023-07-09T20:27:13.007Z,98463.78
2023-07-09T20:29:40.099Z,98459.13
2023-07-09T20:32:15.321Z,98467.69
2023-07-09T20:34:41.810Z,98472.53
2023-07-09T20:37:12.395Z,98486.19
2023-07-09T20:39:44.273Z,98479.16
2023-07-09T20:42:16.238Z,98486.94
2023-07-09T20:44:43.790Z,98500.97
2023-07-09T20:47:17.011Z,98489.31
2023-07-09T20:49:43.993Z,98482.44
2023-07-09T20:52:10.623Z,98488.22
2023-07-09T20:54:38.127Z,98481.34
2023-07-09T20:57:15.420Z,98479.16
2023-07-09T20:59:41.965Z,98483.41
2023-07-09T21:02:35.004Z,98489.94
2023-07-09T21:05:01.622Z,98482.75
2023-07-09T21:07:28.088Z,98488.69
2023-07-09T21:09:54.659Z,98486.06
2023-07-09T21:12:21.133Z,98511.78
2023-07-09T21:14:47.631Z,98497.44
2023-07-09T21:17:18.256Z,98503.19
2023-07-09T21:19:45.356Z,98494.00
2023-07-09T21:22:14.926Z,98494.94
2023-07-09T21:24:42.810Z,98508.03
2023-07-09T21:27:09.354Z,98508.66
2023-07-09T21:29:36.620Z,98516.44
2023-07-09T21:32:07.497Z,98513.00
2023-07-09T21:34:35.493Z,98522.03
2023-07-09T21:37:15.612Z,98519.84
2023-07-09T21:39:42.421Z,98514.41
2023-07-09T21:42:08.969Z,98510.81
2023-07-09T21:44:35.569Z,98517.03
2023-07-09T21:47:06.411Z,98517.50
2023-07-09T21:49:38.177Z,98526.22
2023-07-09T21:52:13.162Z,98514.88
2023-07-09T21:55:06.485Z,98504.88
2023-07-09T21:57:26.092Z,98514.53
2023-07-09T21:59:52.583Z,98522.03
2023-07-09T22:02:26.953Z,98521.72
2023-07-09T22:04:54.877Z,98520.75
2023-07-09T22:07:23.783Z,98530.59
2023-07-09T22:09:54.693Z,98528.56
2023-07-09T22:12:22.432Z,98533.88
2023-07-09T22:14:51.373Z,98529.50
2023-07-09T22:17:19.629Z,98527.94
2023-07-09T22:19:46.358Z,98532.63
2023-07-09T22:22:13.340Z,98529.19
2023-07-09T22:24:40.891Z,98526.09
2023-07-09T22:27:09.795Z,98527.34
2023-07-09T22:29:36.285Z,98537.00
2023-07-09T22:32:03.070Z,98530.63
2023-07-09T22:34:29.601Z,98533.75
2023-07-09T22:36:56.111Z,98522.38
2023-07-09T22:39:22.968Z,98534.81
2023-07-09T22:41:49.792Z,98534.38
2023-07-09T22:44:16.334Z,98529.41
2023-07-09T22:46:44.702Z,98533.59
2023-07-09T22:49:16.684Z,98541.69
2023-07-09T22:51:43.566Z,98548.88
2023-07-09T22:54:11.660Z,98542.47
2023-07-09T22:56:38.192Z,98543.56
2023-07-09T22:59:04.723Z,98550.91
2023-07-09T23:01:32.287Z,98551.97
2023-07-09T23:04:01.499Z,98547.00
2023-07-09T23:06:28.548Z,98548.84
2023-07-09T23:08:56.547Z,98550.09
2023-07-09T23:11:28.895Z,98554.16
2023-07-09T23:13:57.300Z,98551.19
2023-07-09T23:16:26.767Z,98564.91
2023-07-09T23:18:53.684Z,98563.50
2023-07-09T23:21:24.650Z,98560.22
2023-07-09T23:23:54.182Z,98555.56
2023-07-09T23:26:20.673Z,98546.03
2023-07-09T23:28:47.139Z,98551.53
2023-07-09T23:31:24.573Z,98566.91
2023-07-09T23:33:51.529Z,98556.66
2023-07-09T23:36:18.263Z,98551.66
2023-07-09T23:38:44.744Z,98559.59
2023-07-09T23:41:24.010Z,98554.47
2023-07-09T23:43:52.028Z,98555.88
2023-07-09T23:46:18.564Z,98558.50
2023-07-09T23:48:51.298Z,98561.63
2023-07-09T23:51:23.839Z,98561.63
2023-07-09T23:53:52.191Z,98549.47
2023-07-09T23:56:23.387Z,98548.84
2023-07-09T23:58:50.429Z,98547.00
